sensor_id;sensor_type;location;lat;lon;timestamp;P1;durP1;ratioP1;P2;durP2;ratioP2
23280;SDS011;11809;56.390;-3.266;2023-07-02T00:00:04;6.55;;;1.00;;
23280;SDS011;11809;56.390;-3.266;2023-07-02T00:02:33;1.10;;;1.00;;
23280;SDS011;11809;56.390;-3.266;2023-07-02T00:05:01;3.08;;;1.25;;
23280;SDS011;11809;56.390;-3.266;2023-07-02T00:07:28;2.25;;;1.05;;
23280;SDS011;11809;56.390;-3.266;2023-07-02T00:09:55;2.47;;;1.30;;
23280;SDS011;11809;56.390;-3.266;2023-07-02T00:12:22;1.83;;;1.10;;
23280;SDS011;11809;56.390;-3.266;2023-07-02T00:14:49;2.40;;;0.95;;
23280;SDS011;11809;56.390;-3.266;2023-07-02T00:17:20;2.28;;;1.10;;
23280;SDS011;11809;56.390;-3.266;2023-07-02T00:19:47;1.98;;;1.05;;
23280;SDS011;11809;56.390;-3.266;2023-07-02T00:22:19;3.15;;;1.15;;
23280;SDS011;11809;56.390;-3.266;2023-07-02T00:24:46;1.45;;;1.20;;
23280;SDS011;11809;56.390;-3.266;2023-07-02T00:27:14;2.85;;;1.20;;
23280;SDS011;11809;56.390;-3.266;2023-07-02T00:29:41;2.42;;;1.13;;
23280;SDS011;11809;56.390;-3.266;2023-07-02T00:32:08;2.80;;;1.02;;
23280;SDS011;11809;56.390;-3.266;2023-07-02T00:34:35;2.50;;;0.90;;
23280;SDS011;11809;56.390;-3.266;2023-07-02T00:37:02;3.30;;;1.10;;
23280;SDS011;11809;56.390;-3.266;2023-07-02T00:39:30;1.92;;;1.13;;
23280;SDS011;11809;56.390;-3.266;2023-07-02T00:42:03;2.67;;;1.17;;
23280;SDS011;11809;56.390;-3.266;2023-07-02T00:44:31;1.88;;;0.98;;
23280;SDS011;11809;56.390;-3.266;2023-07-02T00:46:58;1.38;;;1.10;;
23280;SDS011;11809;56.390;-3.266;2023-07-02T00:49:25;2.88;;;1.25;;
23280;SDS011;11809;56.390;-3.266;2023-07-02T00:51:52;1.15;;;0.90;;
23280;SDS011;11809;56.390;-3.266;2023-07-02T00:54:19;2.50;;;1.10;;
23280;SDS011;11809;56.390;-3.266;2023-07-02T00:56:46;1.17;;;1.05;;
23280;SDS011;11809;56.390;-3.266;2023-07-02T00:59:13;2.15;;;0.85;;
23280;SDS011;11809;56.390;-3.266;2023-07-02T01:01:41;1.25;;;1.00;;
23280;SDS011;11809;56.390;-3.266;2023-07-02T01:04:08;2.92;;;0.82;;
23280;SDS011;11809;56.390;-3.266;2023-07-02T01:06:36;1.38;;;0.80;;
23280;SDS011;11809;56.390;-3.266;2023-07-02T01:09:08;1.73;;;0.90;;
23280;SDS011;11809;56.390;-3.266;2023-07-02T01:14:19;1.50;;;0.90;;
23280;SDS011;11809;56.390;-3.266;2023-07-02T01:16:55;2.92;;;1.02;;
23280;SDS011;11809;56.390;-3.266;2023-07-02T01:22:27;1.85;;;0.98;;
23280;SDS011;11809;56.390;-3.266;2023-07-02T01:24:55;1.63;;;1.10;;
23280;SDS011;11809;56.390;-3.266;2023-07-02T01:27:23;1.95;;;1.00;;
23280;SDS011;11809;56.390;-3.266;2023-07-02T01:29:53;1.25;;;0.90;;
23280;SDS011;11809;56.390;-3.266;2023-07-02T01:32:20;1.30;;;1.07;;
23280;SDS011;11809;56.390;-3.266;2023-07-02T01:34:48;1.08;;;0.90;;
23280;SDS011;11809;56.390;-3.266;2023-07-02T01:37:16;1.17;;;1.00;;
23280;SDS011;11809;56.390;-3.266;2023-07-02T01:39:43;2.28;;;0.90;;
23280;SDS011;11809;56.390;-3.266;2023-07-02T01:42:11;1.98;;;0.90;;
23280;SDS011;11809;56.390;-3.266;2023-07-02T01:44:38;1.77;;;1.02;;
23280;SDS011;11809;56.390;-3.266;2023-07-02T01:47:05;1.95;;;0.90;;
23280;SDS011;11809;56.390;-3.266;2023-07-02T01:49:33;1.92;;;1.00;;
23280;SDS011;11809;56.390;-3.266;2023-07-02T01:52:00;1.80;;;1.15;;
23280;SDS011;11809;56.390;-3.266;2023-07-02T01:54:27;1.42;;;0.90;;
23280;SDS011;11809;56.390;-3.266;2023-07-02T01:56:55;2.13;;;1.10;;
23280;SDS011;11809;56.390;-3.266;2023-07-02T01:59:22;3.90;;;1.20;;
23280;SDS011;11809;56.390;-3.266;2023-07-02T02:01:49;1.58;;;0.90;;
23280;SDS011;11809;56.390;-3.266;2023-07-02T02:04:17;2.40;;;1.02;;
23280;SDS011;11809;56.390;-3.266;2023-07-02T02:06:44;1.58;;;0.88;;
23280;SDS011;11809;56.390;-3.266;2023-07-02T02:09:11;2.72;;;0.90;;
23280;SDS011;11809;56.390;-3.266;2023-07-02T02:11:43;1.13;;;0.82;;
23280;SDS011;11809;56.390;-3.266;2023-07-02T02:14:11;1.48;;;0.93;;
23280;SDS011;11809;56.390;-3.266;2023-07-02T02:16:39;1.08;;;0.90;;
23280;SDS011;11809;56.390;-3.266;2023-07-02T02:19:06;4.13;;;1.13;;
23280;SDS011;11809;56.390;-3.266;2023-07-02T02:21:33;1.90;;;0.73;;
23280;SDS011;11809;56.390;-3.266;2023-07-02T02:24:00;1.75;;;1.00;;
23280;SDS011;11809;56.390;-3.266;2023-07-02T02:26:27;2.47;;;0.80;;
23280;SDS011;11809;56.390;-3.266;2023-07-02T02:28:54;1.48;;;1.08;;
23280;SDS011;11809;56.390;-3.266;2023-07-02T02:31:21;2.33;;;0.85;;
23280;SDS011;11809;56.390;-3.266;2023-07-02T02:33:48;2.05;;;1.02;;
23280;SDS011;11809;56.390;-3.266;2023-07-02T02:36:15;1.38;;;0.95;;
23280;SDS011;11809;56.390;-3.266;2023-07-02T02:38:44;2.58;;;0.90;;
23280;SDS011;11809;56.390;-3.266;2023-07-02T02:41:11;1.25;;;0.85;;
23280;SDS011;11809;56.390;-3.266;2023-07-02T02:43:40;2.55;;;0.90;;
23280;SDS011;11809;56.390;-3.266;2023-07-02T02:46:10;2.40;;;1.05;;
23280;SDS011;11809;56.390;-3.266;2023-07-02T02:48:38;1.33;;;1.02;;
23280;SDS011;11809;56.390;-3.266;2023-07-02T02:51:06;2.72;;;0.90;;
23280;SDS011;11809;56.390;-3.266;2023-07-02T02:53:33;1.65;;;1.00;;
23280;SDS011;11809;56.390;-3.266;2023-07-02T02:56:00;1.63;;;0.98;;
23280;SDS011;11809;56.390;-3.266;2023-07-02T02:58:27;1.38;;;0.82;;
23280;SDS011;11809;56.390;-3.266;2023-07-02T03:00:54;1.58;;;1.00;;
23280;SDS011;11809;56.390;-3.266;2023-07-02T03:03:22;3.28;;;1.00;;
23280;SDS011;11809;56.390;-3.266;2023-07-02T03:05:51;1.83;;;0.98;;
23280;SDS011;11809;56.390;-3.266;2023-07-02T03:08:18;2.08;;;1.00;;
23280;SDS011;11809;56.390;-3.266;2023-07-02T03:10:45;1.05;;;0.80;;
23280;SDS011;11809;56.390;-3.266;2023-07-02T03:13:12;1.15;;;0.70;;
23280;SDS011;11809;56.390;-3.266;2023-07-02T03:15:39;1.80;;;0.90;;
23280;SDS011;11809;56.390;-3.266;2023-07-02T03:18:06;1.30;;;0.90;;
23280;SDS011;11809;56.390;-3.266;2023-07-02T03:20:33;0.80;;;0.80;;
23280;SDS011;11809;56.390;-3.266;2023-07-02T03:23:00;1.73;;;0.82;;
23280;SDS011;11809;56.390;-3.266;2023-07-02T03:25:27;1.60;;;0.90;;
23280;SDS011;11809;56.390;-3.266;2023-07-02T03:27:55;0.88;;;0.75;;
23280;SDS011;11809;56.390;-3.266;2023-07-02T03:30:22;2.28;;;0.90;;
23280;SDS011;11809;56.390;-3.266;2023-07-02T03:32:49;1.25;;;0.70;;
23280;SDS011;11809;56.390;-3.266;2023-07-02T03:35:16;1.85;;;0.82;;
23280;SDS011;11809;56.390;-3.266;2023-07-02T03:37:43;1.63;;;0.82;;
23280;SDS011;11809;56.390;-3.266;2023-07-02T03:40:10;1.33;;;0.90;;
23280;SDS011;11809;56.390;-3.266;2023-07-02T03:42:37;2.15;;;0.80;;
23280;SDS011;11809;56.390;-3.266;2023-07-02T03:45:05;1.05;;;0.85;;
23280;SDS011;11809;56.390;-3.266;2023-07-02T03:47:32;0.75;;;0.70;;
23280;SDS011;11809;56.390;-3.266;2023-07-02T03:49:59;1.08;;;0.90;;
23280;SDS011;11809;56.390;-3.266;2023-07-02T03:52:27;0.90;;;0.80;;
23280;SDS011;11809;56.390;-3.266;2023-07-02T03:54:54;0.80;;;0.80;;
23280;SDS011;11809;56.390;-3.266;2023-07-02T03:57:22;0.98;;;0.88;;
23280;SDS011;11809;56.390;-3.266;2023-07-02T03:59:49;2.90;;;0.65;;
23280;SDS011;11809;56.390;-3.266;2023-07-02T04:02:16;1.00;;;0.90;;
23280;SDS011;11809;56.390;-3.266;2023-07-02T04:04:43;1.88;;;0.90;;
23280;SDS011;11809;56.390;-3.266;2023-07-02T04:07:10;2.17;;;0.95;;
23280;SDS011;11809;56.390;-3.266;2023-07-02T04:09:37;1.45;;;0.77;;
23280;SDS011;11809;56.390;-3.266;2023-07-02T04:12:04;2.22;;;0.90;;
23280;SDS011;11809;56.390;-3.266;2023-07-02T04:14:32;1.38;;;0.85;;
23280;SDS011;11809;56.390;-3.266;2023-07-02T04:17:00;1.40;;;0.88;;
23280;SDS011;11809;56.390;-3.266;2023-07-02T04:21:57;1.15;;;0.90;;
23280;SDS011;11809;56.390;-3.266;2023-07-02T04:24:24;3.15;;;0.93;;
23280;SDS011;11809;56.390;-3.266;2023-07-02T04:26:52;3.78;;;0.90;;
23280;SDS011;11809;56.390;-3.266;2023-07-02T04:29:40;1.50;;;1.00;;
23280;SDS011;11809;56.390;-3.266;2023-07-02T04:32:07;5.60;;;0.80;;
23280;SDS011;11809;56.390;-3.266;2023-07-02T04:34:34;2.45;;;1.00;;
23280;SDS011;11809;56.390;-3.266;2023-07-02T04:37:06;2.90;;;0.70;;
23280;SDS011;11809;56.390;-3.266;2023-07-02T04:39:33;2.17;;;0.80;;
23280;SDS011;11809;56.390;-3.266;2023-07-02T04:42:00;1.45;;;0.98;;
23280;SDS011;11809;56.390;-3.266;2023-07-02T04:44:27;0.95;;;0.88;;
23280;SDS011;11809;56.390;-3.266;2023-07-02T04:46:58;2.35;;;0.75;;
23280;SDS011;11809;56.390;-3.266;2023-07-02T04:49:26;2.33;;;1.00;;
23280;SDS011;11809;56.390;-3.266;2023-07-02T04:51:53;3.08;;;0.90;;
23280;SDS011;11809;56.390;-3.266;2023-07-02T04:54:20;2.35;;;0.90;;
23280;SDS011;11809;56.390;-3.266;2023-07-02T04:56:48;2.45;;;1.00;;
23280;SDS011;11809;56.390;-3.266;2023-07-02T04:59:15;4.35;;;0.80;;
23280;SDS011;11809;56.390;-3.266;2023-07-02T05:01:42;1.35;;;1.00;;
23280;SDS011;11809;56.390;-3.266;2023-07-02T05:04:10;1.67;;;0.88;;
23280;SDS011;11809;56.390;-3.266;2023-07-02T05:06:40;1.87;;;0.90;;
23280;SDS011;11809;56.390;-3.266;2023-07-02T05:09:07;0.88;;;0.73;;
23280;SDS011;11809;56.390;-3.266;2023-07-02T05:11:34;1.17;;;0.80;;
23280;SDS011;11809;56.390;-3.266;2023-07-02T05:14:01;0.80;;;0.80;;
23280;SDS011;11809;56.390;-3.266;2023-07-02T05:16:28;3.70;;;0.90;;
23280;SDS011;11809;56.390;-3.266;2023-07-02T05:18:56;2.05;;;0.85;;
23280;SDS011;11809;56.390;-3.266;2023-07-02T05:21:23;2.28;;;0.85;;
23280;SDS011;11809;56.390;-3.266;2023-07-02T05:23:50;2.45;;;0.85;;
23280;SDS011;11809;56.390;-3.266;2023-07-02T05:26:17;1.35;;;0.85;;
23280;SDS011;11809;56.390;-3.266;2023-07-02T05:28:44;2.47;;;0.90;;
23280;SDS011;11809;56.390;-3.266;2023-07-02T05:31:11;1.38;;;0.80;;
23280;SDS011;11809;56.390;-3.266;2023-07-02T05:33:38;1.35;;;0.75;;
23280;SDS011;11809;56.390;-3.266;2023-07-02T05:36:05;1.42;;;0.75;;
23280;SDS011;11809;56.390;-3.266;2023-07-02T05:38:33;1.17;;;0.93;;
23280;SDS011;11809;56.390;-3.266;2023-07-02T05:41:01;1.67;;;0.90;;
23280;SDS011;11809;56.390;-3.266;2023-07-02T05:43:31;1.35;;;0.90;;
23280;SDS011;11809;56.390;-3.266;2023-07-02T05:45:59;1.75;;;0.80;;
23280;SDS011;11809;56.390;-3.266;2023-07-02T05:48:29;0.88;;;0.70;;
23280;SDS011;11809;56.390;-3.266;2023-07-02T05:50:56;1.08;;;0.90;;
23280;SDS011;11809;56.390;-3.266;2023-07-02T05:53:23;1.27;;;0.82;;
23280;SDS011;11809;56.390;-3.266;2023-07-02T05:55:50;1.73;;;0.82;;
23280;SDS011;11809;56.390;-3.266;2023-07-02T05:58:18;1.05;;;0.75;;
23280;SDS011;11809;56.390;-3.266;2023-07-02T06:00:48;1.73;;;0.80;;
23280;SDS011;11809;56.390;-3.266;2023-07-02T06:03:17;0.77;;;0.70;;
23280;SDS011;11809;56.390;-3.266;2023-07-02T06:05:51;2.67;;;0.85;;
23280;SDS011;11809;56.390;-3.266;2023-07-02T06:08:18;1.35;;;0.80;;
23280;SDS011;11809;56.390;-3.266;2023-07-02T06:10:46;4.07;;;0.80;;
23280;SDS011;11809;56.390;-3.266;2023-07-02T06:13:14;1.60;;;0.75;;
23280;SDS011;11809;56.390;-3.266;2023-07-02T06:15:42;0.82;;;0.80;;
23280;SDS011;11809;56.390;-3.266;2023-07-02T06:18:10;0.90;;;0.60;;
23280;SDS011;11809;56.390;-3.266;2023-07-02T06:20:37;51.40;;;2.80;;
23280;SDS011;11809;56.390;-3.266;2023-07-02T06:23:04;19.70;;;1.25;;
23280;SDS011;11809;56.390;-3.266;2023-07-02T06:25:31;16.17;;;1.10;;
23280;SDS011;11809;56.390;-3.266;2023-07-02T06:27:59;5.65;;;1.00;;
23280;SDS011;11809;56.390;-3.266;2023-07-02T06:30:26;5.10;;;0.98;;
23280;SDS011;11809;56.390;-3.266;2023-07-02T06:32:54;16.45;;;1.42;;
23280;SDS011;11809;56.390;-3.266;2023-07-02T06:35:21;11.80;;;1.13;;
23280;SDS011;11809;56.390;-3.266;2023-07-02T06:37:49;9.00;;;0.90;;
23280;SDS011;11809;56.390;-3.266;2023-07-02T06:40:16;12.65;;;1.10;;
23280;SDS011;11809;56.390;-3.266;2023-07-02T06:42:44;14.30;;;1.38;;
23280;SDS011;11809;56.390;-3.266;2023-07-02T06:45:11;8.35;;;1.20;;
23280;SDS011;11809;56.390;-3.266;2023-07-02T06:47:38;14.38;;;1.40;;
23280;SDS011;11809;56.390;-3.266;2023-07-02T06:50:06;11.77;;;1.48;;
23280;SDS011;11809;56.390;-3.266;2023-07-02T06:52:33;45.33;;;2.88;;
23280;SDS011;11809;56.390;-3.266;2023-07-02T06:55:00;46.58;;;2.63;;
23280;SDS011;11809;56.390;-3.266;2023-07-02T06:57:27;42.47;;;2.60;;
23280;SDS011;11809;56.390;-3.266;2023-07-02T06:59:58;30.17;;;2.15;;
23280;SDS011;11809;56.390;-3.266;2023-07-02T07:02:26;31.40;;;1.95;;
23280;SDS011;11809;56.390;-3.266;2023-07-02T07:04:54;16.65;;;1.48;;
23280;SDS011;11809;56.390;-3.266;2023-07-02T07:07:21;23.08;;;2.25;;
23280;SDS011;11809;56.390;-3.266;2023-07-02T07:09:49;16.35;;;1.20;;
23280;SDS011;11809;56.390;-3.266;2023-07-02T07:12:16;16.25;;;1.55;;
23280;SDS011;11809;56.390;-3.266;2023-07-02T07:14:43;6.57;;;1.20;;
23280;SDS011;11809;56.390;-3.266;2023-07-02T07:17:11;14.63;;;1.17;;
23280;SDS011;11809;56.390;-3.266;2023-07-02T07:19:38;20.05;;;1.40;;
23280;SDS011;11809;56.390;-3.266;2023-07-02T07:22:06;13.93;;;1.42;;
23280;SDS011;11809;56.390;-3.266;2023-07-02T07:24:33;21.17;;;1.63;;
23280;SDS011;11809;56.390;-3.266;2023-07-02T07:27:00;18.42;;;1.73;;
23280;SDS011;11809;56.390;-3.266;2023-07-02T07:29:27;19.27;;;3.90;;
23280;SDS011;11809;56.390;-3.266;2023-07-02T07:31:55;24.95;;;5.75;;
23280;SDS011;11809;56.390;-3.266;2023-07-02T07:34:23;29.25;;;5.18;;
23280;SDS011;11809;56.390;-3.266;2023-07-02T07:36:50;17.95;;;5.47;;
23280;SDS011;11809;56.390;-3.266;2023-07-02T07:39:17;18.08;;;5.28;;
23280;SDS011;11809;56.390;-3.266;2023-07-02T07:41:47;14.48;;;4.65;;
23280;SDS011;11809;56.390;-3.266;2023-07-02T07:44:15;10.73;;;4.10;;
23280;SDS011;11809;56.390;-3.266;2023-07-02T07:46:42;11.57;;;3.78;;
23280;SDS011;11809;56.390;-3.266;2023-07-02T07:49:09;13.00;;;4.22;;
23280;SDS011;11809;56.390;-3.266;2023-07-02T07:51:36;12.77;;;3.92;;
23280;SDS011;11809;56.390;-3.266;2023-07-02T07:54:03;16.50;;;4.00;;
23280;SDS011;11809;56.390;-3.266;2023-07-02T07:56:30;11.10;;;3.42;;
23280;SDS011;11809;56.390;-3.266;2023-07-02T07:58:58;11.50;;;3.20;;
23280;SDS011;11809;56.390;-3.266;2023-07-02T08:01:26;10.25;;;3.10;;
23280;SDS011;11809;56.390;-3.266;2023-07-02T08:03:54;10.98;;;2.38;;
23280;SDS011;11809;56.390;-3.266;2023-07-02T08:06:22;6.10;;;2.40;;
23280;SDS011;11809;56.390;-3.266;2023-07-02T08:08:49;11.00;;;2.10;;
23280;SDS011;11809;56.390;-3.266;2023-07-02T08:11:16;13.20;;;1.92;;
23280;SDS011;11809;56.390;-3.266;2023-07-02T08:13:43;6.57;;;2.33;;
23280;SDS011;11809;56.390;-3.266;2023-07-02T08:16:10;11.00;;;2.00;;
23280;SDS011;11809;56.390;-3.266;2023-07-02T08:18:38;11.40;;;2.40;;
23280;SDS011;11809;56.390;-3.266;2023-07-02T08:21:05;7.88;;;2.00;;
23280;SDS011;11809;56.390;-3.266;2023-07-02T08:23:33;14.32;;;2.08;;
23280;SDS011;11809;56.390;-3.266;2023-07-02T08:26:00;20.05;;;2.20;;
23280;SDS011;11809;56.390;-3.266;2023-07-02T08:28:28;38.72;;;2.83;;
23280;SDS011;11809;56.390;-3.266;2023-07-02T08:30:56;11.32;;;1.63;;
23280;SDS011;11809;56.390;-3.266;2023-07-02T08:33:23;10.35;;;1.30;;
23280;SDS011;11809;56.390;-3.266;2023-07-02T08:35:51;6.68;;;1.30;;
23280;SDS011;11809;56.390;-3.266;2023-07-02T08:38:30;7.43;;;1.30;;
23280;SDS011;11809;56.390;-3.266;2023-07-02T08:40:57;10.13;;;1.20;;
23280;SDS011;11809;56.390;-3.266;2023-07-02T08:43:25;10.85;;;1.33;;
23280;SDS011;11809;56.390;-3.266;2023-07-02T08:45:53;6.63;;;0.90;;
23280;SDS011;11809;56.390;-3.266;2023-07-02T08:48:21;9.13;;;1.52;;
23280;SDS011;11809;56.390;-3.266;2023-07-02T08:50:50;6.75;;;0.77;;
23280;SDS011;11809;56.390;-3.266;2023-07-02T08:53:18;4.60;;;0.60;;
23280;SDS011;11809;56.390;-3.266;2023-07-02T08:55:45;3.72;;;0.93;;
23280;SDS011;11809;56.390;-3.266;2023-07-02T08:58:14;15.63;;;1.00;;
23280;SDS011;11809;56.390;-3.266;2023-07-02T09:00:41;7.75;;;0.82;;
23280;SDS011;11809;56.390;-3.266;2023-07-02T09:03:34;10.77;;;1.52;;
23280;SDS011;11809;56.390;-3.266;2023-07-02T09:06:07;7.20;;;1.10;;
23280;SDS011;11809;56.390;-3.266;2023-07-02T09:08:35;3.78;;;0.93;;
23280;SDS011;11809;56.390;-3.266;2023-07-02T09:11:06;21.00;;;2.10;;
23280;SDS011;11809;56.390;-3.266;2023-07-02T09:13:46;7.78;;;1.10;;
23280;SDS011;11809;56.390;-3.266;2023-07-02T09:16:35;2.38;;;0.82;;
23280;SDS011;11809;56.390;-3.266;2023-07-02T09:19:07;4.03;;;0.90;;
23280;SDS011;11809;56.390;-3.266;2023-07-02T09:24:19;4.88;;;0.70;;
23280;SDS011;11809;56.390;-3.266;2023-07-02T09:26:48;5.20;;;0.70;;
23280;SDS011;11809;56.390;-3.266;2023-07-02T09:29:28;2.00;;;0.63;;
23280;SDS011;11809;56.390;-3.266;2023-07-02T09:31:58;4.22;;;0.80;;
23280;SDS011;11809;56.390;-3.266;2023-07-02T09:34:30;5.70;;;0.70;;
23280;SDS011;11809;56.390;-3.266;2023-07-02T09:36:59;6.28;;;0.80;;
23280;SDS011;11809;56.390;-3.266;2023-07-02T09:39:31;4.63;;;0.65;;
23280;SDS011;11809;56.390;-3.266;2023-07-02T09:42:00;4.85;;;0.68;;
23280;SDS011;11809;56.390;-3.266;2023-07-02T09:44:32;7.18;;;0.63;;
23280;SDS011;11809;56.390;-3.266;2023-07-02T09:47:07;1.95;;;0.80;;
23280;SDS011;11809;56.390;-3.266;2023-07-02T09:49:38;2.78;;;0.45;;
23280;SDS011;11809;56.390;-3.266;2023-07-02T09:52:08;3.17;;;0.60;;
23280;SDS011;11809;56.390;-3.266;2023-07-02T09:54:37;2.40;;;0.70;;
23280;SDS011;11809;56.390;-3.266;2023-07-02T09:57:05;17.45;;;1.13;;
23280;SDS011;11809;56.390;-3.266;2023-07-02T09:59:35;6.07;;;0.65;;
23280;SDS011;11809;56.390;-3.266;2023-07-02T10:02:02;6.47;;;0.75;;
23280;SDS011;11809;56.390;-3.266;2023-07-02T10:04:39;3.22;;;0.80;;
23280;SDS011;11809;56.390;-3.266;2023-07-02T10:07:10;4.80;;;0.75;;
23280;SDS011;11809;56.390;-3.266;2023-07-02T10:12:15;7.18;;;0.90;;
23280;SDS011;11809;56.390;-3.266;2023-07-02T10:14:50;6.30;;;0.98;;
23280;SDS011;11809;56.390;-3.266;2023-07-02T10:19:52;3.80;;;0.60;;
23280;SDS011;11809;56.390;-3.266;2023-07-02T10:22:20;2.15;;;0.85;;
23280;SDS011;11809;56.390;-3.266;2023-07-02T10:24:58;2.25;;;0.68;;
23280;SDS011;11809;56.390;-3.266;2023-07-02T10:27:33;2.58;;;0.70;;
23280;SDS011;11809;56.390;-3.266;2023-07-02T10:30:02;4.68;;;0.90;;
23280;SDS011;11809;56.390;-3.266;2023-07-02T10:32:30;2.20;;;0.70;;
23280;SDS011;11809;56.390;-3.266;2023-07-02T10:35:16;10.77;;;0.90;;
23280;SDS011;11809;56.390;-3.266;2023-07-02T10:37:44;5.07;;;0.80;;
23280;SDS011;11809;56.390;-3.266;2023-07-02T10:40:11;10.95;;;0.90;;
23280;SDS011;11809;56.390;-3.266;2023-07-02T10:42:49;7.13;;;1.15;;
23280;SDS011;11809;56.390;-3.266;2023-07-02T10:45:17;8.32;;;0.90;;
23280;SDS011;11809;56.390;-3.266;2023-07-02T10:47:45;16.17;;;1.08;;
23280;SDS011;11809;56.390;-3.266;2023-07-02T10:50:17;15.15;;;1.35;;
23280;SDS011;11809;56.390;-3.266;2023-07-02T10:52:46;11.07;;;1.00;;
23280;SDS011;11809;56.390;-3.266;2023-07-02T10:55:20;3.78;;;0.73;;
23280;SDS011;11809;56.390;-3.266;2023-07-02T10:57:49;7.00;;;1.30;;
23280;SDS011;11809;56.390;-3.266;2023-07-02T11:02:48;10.48;;;0.80;;
23280;SDS011;11809;56.390;-3.266;2023-07-02T11:05:15;8.98;;;1.08;;
23280;SDS011;11809;56.390;-3.266;2023-07-02T11:07:42;7.40;;;0.82;;
23280;SDS011;11809;56.390;-3.266;2023-07-02T11:10:10;11.43;;;1.73;;
23280;SDS011;11809;56.390;-3.266;2023-07-02T11:12:45;17.48;;;1.75;;
23280;SDS011;11809;56.390;-3.266;2023-07-02T11:15:13;15.68;;;1.60;;
23280;SDS011;11809;56.390;-3.266;2023-07-02T11:17:41;25.15;;;1.67;;
23280;SDS011;11809;56.390;-3.266;2023-07-02T11:20:09;17.88;;;1.60;;
23280;SDS011;11809;56.390;-3.266;2023-07-02T11:22:38;20.02;;;1.80;;
23280;SDS011;11809;56.390;-3.266;2023-07-02T11:25:09;15.60;;;1.48;;
23280;SDS011;11809;56.390;-3.266;2023-07-02T11:30:04;8.52;;;1.27;;
23280;SDS011;11809;56.390;-3.266;2023-07-02T11:35:19;15.10;;;1.33;;
23280;SDS011;11809;56.390;-3.266;2023-07-02T11:37:47;24.05;;;1.70;;
23280;SDS011;11809;56.390;-3.266;2023-07-02T11:40:19;19.20;;;1.50;;
23280;SDS011;11809;56.390;-3.266;2023-07-02T11:42:46;29.77;;;2.05;;
23280;SDS011;11809;56.390;-3.266;2023-07-02T11:45:13;6.47;;;0.80;;
23280;SDS011;11809;56.390;-3.266;2023-07-02T11:47:40;6.47;;;0.60;;
23280;SDS011;11809;56.390;-3.266;2023-07-02T11:50:08;4.70;;;0.90;;
23280;SDS011;11809;56.390;-3.266;2023-07-02T11:52:52;5.72;;;0.80;;
23280;SDS011;11809;56.390;-3.266;2023-07-02T11:55:19;2.90;;;0.80;;
23280;SDS011;11809;56.390;-3.266;2023-07-02T11:57:46;3.42;;;0.90;;
23280;SDS011;11809;56.390;-3.266;2023-07-02T12:00:16;3.65;;;0.70;;
23280;SDS011;11809;56.390;-3.266;2023-07-02T12:02:43;3.10;;;0.70;;
23280;SDS011;11809;56.390;-3.266;2023-07-02T12:05:10;3.10;;;0.93;;
23280;SDS011;11809;56.390;-3.266;2023-07-02T12:07:38;7.53;;;0.80;;
23280;SDS011;11809;56.390;-3.266;2023-07-02T12:10:06;7.10;;;1.05;;
23280;SDS011;11809;56.390;-3.266;2023-07-02T12:12:34;15.23;;;1.50;;
23280;SDS011;11809;56.390;-3.266;2023-07-02T12:15:01;15.18;;;1.70;;
23280;SDS011;11809;56.390;-3.266;2023-07-02T12:17:29;20.80;;;1.50;;
23280;SDS011;11809;56.390;-3.266;2023-07-02T12:19:56;19.90;;;1.50;;
23280;SDS011;11809;56.390;-3.266;2023-07-02T12:22:24;32.70;;;1.90;;
23280;SDS011;11809;56.390;-3.266;2023-07-02T12:24:51;16.58;;;1.20;;
23280;SDS011;11809;56.390;-3.266;2023-07-02T12:27:22;17.15;;;1.98;;
23280;SDS011;11809;56.390;-3.266;2023-07-02T12:29:49;6.32;;;1.10;;
23280;SDS011;11809;56.390;-3.266;2023-07-02T12:32:17;7.60;;;1.33;;
23280;SDS011;11809;56.390;-3.266;2023-07-02T12:34:44;8.40;;;1.00;;
23280;SDS011;11809;56.390;-3.266;2023-07-02T12:37:11;15.27;;;1.20;;
23280;SDS011;11809;56.390;-3.266;2023-07-02T12:39:40;20.60;;;1.95;;
23280;SDS011;11809;56.390;-3.266;2023-07-02T12:42:07;23.33;;;2.08;;
23280;SDS011;11809;56.390;-3.266;2023-07-02T12:44:34;23.27;;;1.42;;
23280;SDS011;11809;56.390;-3.266;2023-07-02T12:47:02;20.88;;;3.05;;
23280;SDS011;11809;56.390;-3.266;2023-07-02T12:49:29;33.50;;;3.90;;
23280;SDS011;11809;56.390;-3.266;2023-07-02T12:51:56;24.45;;;3.10;;
23280;SDS011;11809;56.390;-3.266;2023-07-02T12:54:24;28.38;;;4.22;;
23280;SDS011;11809;56.390;-3.266;2023-07-02T12:56:52;32.38;;;3.60;;
23280;SDS011;11809;56.390;-3.266;2023-07-02T12:59:19;28.00;;;3.60;;
23280;SDS011;11809;56.390;-3.266;2023-07-02T13:01:46;20.83;;;3.47;;
23280;SDS011;11809;56.390;-3.266;2023-07-02T13:04:14;16.48;;;3.05;;
23280;SDS011;11809;56.390;-3.266;2023-07-02T13:06:42;19.23;;;2.97;;
23280;SDS011;11809;56.390;-3.266;2023-07-02T13:09:11;21.85;;;3.00;;
23280;SDS011;11809;56.390;-3.266;2023-07-02T13:11:38;14.93;;;2.65;;
23280;SDS011;11809;56.390;-3.266;2023-07-02T13:14:06;16.88;;;3.13;;
23280;SDS011;11809;56.390;-3.266;2023-07-02T13:16:33;31.27;;;3.38;;
23280;SDS011;11809;56.390;-3.266;2023-07-02T13:19:00;14.50;;;2.85;;
23280;SDS011;11809;56.390;-3.266;2023-07-02T13:21:28;17.70;;;3.00;;
23280;SDS011;11809;56.390;-3.266;2023-07-02T13:23:55;31.77;;;3.50;;
23280;SDS011;11809;56.390;-3.266;2023-07-02T13:26:23;40.65;;;3.50;;
23280;SDS011;11809;56.390;-3.266;2023-07-02T13:28:50;41.50;;;3.10;;
23280;SDS011;11809;56.390;-3.266;2023-07-02T13:31:17;7.43;;;1.80;;
23280;SDS011;11809;56.390;-3.266;2023-07-02T13:33:44;26.25;;;2.65;;
23280;SDS011;11809;56.390;-3.266;2023-07-02T13:36:13;30.33;;;2.55;;
23280;SDS011;11809;56.390;-3.266;2023-07-02T13:38:40;17.67;;;1.73;;
23280;SDS011;11809;56.390;-3.266;2023-07-02T13:41:07;15.43;;;2.00;;
23280;SDS011;11809;56.390;-3.266;2023-07-02T13:43:35;16.25;;;2.15;;
23280;SDS011;11809;56.390;-3.266;2023-07-02T13:46:02;26.08;;;1.98;;
23280;SDS011;11809;56.390;-3.266;2023-07-02T13:48:29;21.35;;;2.20;;
23280;SDS011;11809;56.390;-3.266;2023-07-02T13:50:57;18.15;;;2.38;;
23280;SDS011;11809;56.390;-3.266;2023-07-02T13:53:24;19.70;;;2.28;;
23280;SDS011;11809;56.390;-3.266;2023-07-02T13:55:51;17.77;;;2.50;;
23280;SDS011;11809;56.390;-3.266;2023-07-02T13:58:18;13.80;;;2.38;;
23280;SDS011;11809;56.390;-3.266;2023-07-02T14:00:55;16.83;;;3.00;;
23280;SDS011;11809;56.390;-3.266;2023-07-02T14:03:22;15.65;;;3.60;;
23280;SDS011;11809;56.390;-3.266;2023-07-02T14:05:49;31.33;;;4.47;;
23280;SDS011;11809;56.390;-3.266;2023-07-02T14:08:18;31.48;;;10.60;;
23280;SDS011;11809;56.390;-3.266;2023-07-02T14:10:45;30.10;;;9.95;;
23280;SDS011;11809;56.390;-3.266;2023-07-02T14:13:13;30.17;;;7.70;;
23280;SDS011;11809;56.390;-3.266;2023-07-02T14:15:40;27.52;;;9.77;;
23280;SDS011;11809;56.390;-3.266;2023-07-02T14:18:07;43.38;;;9.35;;
23280;SDS011;11809;56.390;-3.266;2023-07-02T14:20:34;37.55;;;8.75;;
23280;SDS011;11809;56.390;-3.266;2023-07-02T14:23:02;30.23;;;6.22;;
23280;SDS011;11809;56.390;-3.266;2023-07-02T14:25:29;14.95;;;3.85;;
23280;SDS011;11809;56.390;-3.266;2023-07-02T14:28:15;9.40;;;3.10;;
23280;SDS011;11809;56.390;-3.266;2023-07-02T14:30:42;17.90;;;2.88;;
23280;SDS011;11809;56.390;-3.266;2023-07-02T14:33:10;37.00;;;3.45;;
23280;SDS011;11809;56.390;-3.266;2023-07-02T14:35:38;24.15;;;3.38;;
23280;SDS011;11809;56.390;-3.266;2023-07-02T14:38:06;11.38;;;2.92;;
23280;SDS011;11809;56.390;-3.266;2023-07-02T14:40:34;16.85;;;2.92;;
23280;SDS011;11809;56.390;-3.266;2023-07-02T14:43:01;24.52;;;2.53;;
23280;SDS011;11809;56.390;-3.266;2023-07-02T14:45:30;6.57;;;1.50;;
23280;SDS011;11809;56.390;-3.266;2023-07-02T14:47:57;12.50;;;2.28;;
23280;SDS011;11809;56.390;-3.266;2023-07-02T14:50:27;36.60;;;2.83;;
23280;SDS011;11809;56.390;-3.266;2023-07-02T14:52:54;14.73;;;2.10;;
23280;SDS011;11809;56.390;-3.266;2023-07-02T14:55:21;19.80;;;2.85;;
23280;SDS011;11809;56.390;-3.266;2023-07-02T14:57:48;25.17;;;2.30;;